Time;durP1;ratioP1;P1;durP2;ratioP2;P2;SDS_P1;SDS_P2;PMS_P1;PMS_P2;Temp;Humidity;BMP_temperature;BMP_pressure;BME280_temperature;BME280_humidity;BME280_pressure;Samples;Min_cycle;Max_cycle;Signal;HPM_P1;HPM_P2
2022/08/28 00:02:24;;;;;;;0.00;0.00;;;;;;;20.64;46.54;101602.09;7363554;19;20845;-62
2022/08/28 00:04:49;;;;;;;0.00;0.00;;;;;;;20.62;47.24;101607.44;7365478;19;20027;-62
2022/08/28 00:07:15;;;;;;;0.00;0.00;;;;;;;20.61;47.81;101616.34;7359841;19;20473;-62
2022/08/28 00:09:43;;;;;;;0.00;0.00;;;;;;;20.58;47.78;101613.00;7355052;19;20014;-62
2022/08/28 00:12:11;;;;;;;0.00;0.00;;;;;;;20.54;48.09;101604.34;7355355;19;20078;-62
2022/08/28 00:14:37;;;;;;;;;;;;;;;20.52;44.95;101610.66;7350923;19;20026;-62
2022/08/28 00:17:03;;;;;;;0.00;0.00;;;;;;;20.47;48.05;101610.88;7348820;19;20486;-62
2022/08/28 00:19:28;;;;;;;0.00;0.00;;;;;;;20.43;47.83;101614.59;7353934;19;20037;-62
2022/08/28 00:21:54;;;;;;;0.00;0.00;;;;;;;20.39;48.30;101621.84;7360478;19;20006;-62
2022/08/28 00:24:19;;;;;;;0.00;0.00;;;;;;;20.25;48.33;101603.09;7357931;19;20054;-62
2022/08/28 00:29:29;;;;;;;0.00;0.00;;;;;;;20.29;48.55;101615.28;7355070;19;20525;-62
2022/08/28 00:31:55;;;;;;;0.00;0.00;;;;;;;20.27;48.80;101619.78;7356357;19;20010;-62
2022/08/28 00:34:23;;;;;;;0.00;0.00;;;;;;;20.25;48.73;101618.16;7353850;19;20011;-62
2022/08/28 00:36:48;;;;;;;0.00;0.00;;;;;;;20.22;48.74;101619.13;7353049;19;20026;-62
2022/08/28 00:39:14;;;;;;;0.00;0.00;;;;;;;20.20;48.77;101615.72;7348625;19;20010;-62
2022/08/28 00:41:40;;;;;;;0.00;0.00;;;;;;;20.19;49.17;101620.16;7355640;19;20850;-62
2022/08/28 00:44:16;;;;;;;0.00;0.00;;;;;;;20.19;48.36;101621.97;7359841;19;20022;-62
2022/08/28 00:46:44;;;;;;;0.00;0.00;;;;;;;20.17;49.34;101623.81;7360015;19;20030;-62
2022/08/28 00:49:12;;;;;;;0.00;0.00;;;;;;;20.16;49.19;101624.75;7358031;19;20026;-62
2022/08/28 00:54:25;;;;;;;0.00;0.00;;;;;;;20.11;49.90;101618.81;7353570;19;20183;-62
2022/08/28 00:56:53;;;;;;;0.00;0.00;;;;;;;20.13;49.60;101623.13;7356851;19;20918;-62
2022/08/28 00:59:24;;;;;;;0.00;0.00;;;;;;;20.13;48.95;101617.81;7359217;19;20011;-62
2022/08/28 01:01:54;;;;;;;0.00;0.00;;;;;;;20.13;49.13;101614.31;7362435;19;20093;-62
2022/08/28 01:04:21;;;;;;;0.00;0.00;;;;;;;20.10;49.51;101614.44;7360469;19;20031;-62
2022/08/28 01:06:52;;;;;;;0.00;0.00;;;;;;;20.09;49.41;101618.03;7359234;19;20593;-62
2022/08/28 01:09:21;;;;;;;0.00;0.00;;;;;;;20.08;49.89;101622.47;7360055;19;20018;-62
2022/08/28 01:11:50;;;;;;;0.00;0.00;;;;;;;19.85;49.95;101585.59;7358984;19;20020;-62
2022/08/28 01:14:18;;;;;;;0.00;0.00;;;;;;;20.07;49.56;101614.56;7361139;19;20019;-62
2022/08/28 01:16:47;;;;;;;0.00;0.00;;;;;;;20.05;50.06;101616.44;7365151;19;20018;-62
2022/08/28 01:19:25;;;;;;;0.00;0.00;;;;;;;20.05;49.28;101605.84;7369026;19;20024;-62
2022/08/28 01:22:02;;;;;;;0.00;0.00;;;;;;;20.04;49.51;101609.44;7373249;19;20415;-62
2022/08/28 01:24:29;;;;;;;0.10;0.10;;;;;;;20.00;50.11;101603.41;7373817;19;20029;-62
2022/08/28 01:26:55;;;;;;;0.00;0.00;;;;;;;19.99;50.08;101600.84;7370155;19;20055;-61
2022/08/28 01:29:20;;;;;;;0.00;0.00;;;;;;;19.97;50.38;101592.94;7371726;19;20014;-62
2022/08/28 01:31:47;;;;;;;0.00;0.00;;;;;;;19.96;50.35;101602.69;7374228;19;20185;-62
2022/08/28 01:34:13;;;;;;;0.00;0.00;;;;;;;19.94;50.37;101603.72;7373257;19;20017;-62
2022/08/28 01:36:40;;;;;;;0.00;0.00;;;;;;;19.92;50.34;101601.13;7369438;19;20014;-62
2022/08/28 01:39:13;;;;;;;0.00;0.00;;;;;;;19.90;50.29;101600.34;7372231;19;20782;-62
2022/08/28 01:41:40;;;;;;;0.00;0.00;;;;;;;19.79;50.57;101589.38;7373918;19;20518;-62
2022/08/28 01:44:06;;;;;;;0.00;0.00;;;;;;;19.86;50.30;101597.91;7368870;19;20053;-62
2022/08/28 01:46:31;;;;;;;0.00;0.00;;;;;;;19.72;49.51;101581.78;7372973;19;20475;-62
2022/08/28 01:48:58;;;;;;;0.00;0.00;;;;;;;19.70;50.41;101595.09;7370367;19;20018;-62
2022/08/28 01:51:26;;;;;;;0.10;0.10;;;;;;;19.70;50.33;101598.63;7362390;19;20014;-62
2022/08/28 01:53:51;;;;;;;0.00;0.00;;;;;;;19.69;50.47;101604.84;7363266;19;20766;-62
2022/08/28 01:56:18;;;;;;;0.00;0.00;;;;;;;19.66;50.84;101601.47;7362765;19;20090;-62
2022/08/28 01:58:44;;;;;;;0.10;0.10;;;;;;;19.63;50.57;101606.94;7348065;19;20010;-62
2022/08/28 02:01:20;;;;;;;0.00;0.00;;;;;;;19.61;50.11;101611.44;7360889;19;20036;-62
2022/08/28 02:03:46;;;;;;;0.00;0.00;;;;;;;19.58;50.92;101608.91;7358782;19;20018;-62
2022/08/28 02:06:13;;;;;;;0.00;0.00;;;;;;;19.54;50.55;101608.19;7358009;19;20018;-62
2022/08/28 02:08:39;;;;;;;0.00;0.00;;;;;;;19.54;50.67;101609.97;7361212;19;20735;-62
2022/08/28 02:11:07;;;;;;;0.00;0.00;;;;;;;19.52;51.01;101614.50;7361082;19;20052;-62
2022/08/28 02:13:35;;;;;;;0.10;0.10;;;;;;;19.51;50.34;101618.03;7361810;19;20040;-62
2022/08/28 02:16:00;;;;;;;0.00;0.00;;;;;;;19.48;51.47;101611.09;7359027;19;20052;-62
2022/08/28 02:18:26;;;;;;;0.00;0.00;;;;;;;19.45;51.12;101611.22;7358050;19;20014;-62
2022/08/28 02:20:51;;;;;;;0.00;0.00;;;;;;;19.38;51.08;101600.06;7361507;19;20022;-62
2022/08/28 02:23:17;;;;;;;0.00;0.00;;;;;;;19.37;51.21;101602.78;7360943;19;20015;-62
2022/08/28 02:25:45;;;;;;;0.00;0.00;;;;;;;19.38;51.41;101613.31;7358685;19;20030;-62
2022/08/28 02:28:12;;;;;;;0.00;0.00;;;;;;;19.36;50.90;101606.34;7356012;19;20383;-62
2022/08/28 02:30:39;;;;;;;0.00;0.00;;;;;;;19.33;51.01;101615.31;7360340;19;20022;-62
2022/08/28 02:33:04;;;;;;;0.00;0.00;;;;;;;19.21;51.30;101596.44;7362244;19;20046;-63
2022/08/28 02:35:30;;;;;;;0.00;0.00;;;;;;;19.29;51.54;101607.56;7357878;19;20018;-62
2022/08/28 02:37:56;;;;;;;0.00;0.00;;;;;;;19.22;51.58;101599.03;7361634;19;20007;-62
2022/08/28 02:40:23;;;;;;;0.00;0.00;;;;;;;19.23;51.51;101608.69;7358393;19;20030;-62
2022/08/28 02:42:49;;;;;;;0.08;0.08;;;;;;;19.21;51.19;101605.28;7358653;19;20015;-62
2022/08/28 02:45:18;;;;;;;0.00;0.00;;;;;;;19.19;51.52;101601.81;7355710;19;20074;-62
2022/08/28 02:47:45;;;;;;;0.00;0.00;;;;;;;19.12;51.70;101605.66;7361127;19;20108;-62
2022/08/28 02:50:14;;;;;;;0.00;0.00;;;;;;;19.13;51.54;101604.75;7355778;19;20021;-62
2022/08/28 02:52:41;;;;;;;0.00;0.00;;;;;;;19.10;51.87;101599.56;7369285;19;20038;-62
2022/08/28 02:55:09;;;;;;;0.05;0.05;;;;;;;19.05;51.66;101602.41;7367790;19;20528;-63
2022/08/28 02:57:34;;;;;;;0.00;0.00;;;;;;;19.07;51.83;101607.66;7369384;19;20471;-62
2022/08/28 03:00:01;;;;;;;0.00;0.00;;;;;;;19.05;51.93;101606.84;7367872;19;20020;-62
2022/08/28 03:02:27;;;;;;;0.00;0.00;;;;;;;19.02;51.99;101607.84;7366044;19;20836;-62
2022/08/28 03:04:55;;;;;;;0.00;0.00;;;;;;;18.99;51.68;101602.69;7362020;19;20475;-62
2022/08/28 03:07:21;;;;;;;0.00;0.00;;;;;;;18.97;52.11;101604.56;7368762;19;20044;-62
2022/08/28 03:09:47;;;;;;;0.00;0.00;;;;;;;18.96;52.26;101596.66;7368790;19;20498;-62
2022/08/28 03:12:13;;;;;;;0.00;0.00;;;;;;;18.92;52.38;101591.50;7369991;19;20043;-62
2022/08/28 03:14:38;;;;;;;0.00;0.00;;;;;;;18.90;52.55;101592.50;7367265;19;20045;-62
2022/08/28 03:17:06;;;;;;;0.00;0.00;;;;;;;18.89;52.88;101596.94;7368316;19;20046;-62
2022/08/28 03:19:32;;;;;;;0.00;0.00;;;;;;;18.86;52.27;101594.44;7360258;19;20013;-62
2022/08/28 03:21:57;;;;;;;0.00;0.00;;;;;;;18.84;52.70;101593.63;7362956;19;20466;-62
2022/08/28 03:24:25;;;;;;;0.00;0.00;;;;;;;18.82;52.44;101600.78;7361413;19;20024;-62
2022/08/28 03:26:50;;;;;;;;;;;;;;;18.83;49.80;101598.97;7360437;19;20708;-65
2022/08/28 03:29:16;;;;;;;0.00;0.00;;;;;;;18.73;52.88;101590.56;7361635;19;19925;-62
2022/08/28 03:31:41;;;;;;;0.00;0.00;;;;;;;18.72;52.86;101588.84;7358960;19;20028;-62
2022/08/28 03:34:08;;;;;;;0.00;0.00;;;;;;;18.67;52.80;101586.38;7361095;19;20017;-62
2022/08/28 03:36:33;;;;;;;0.00;0.00;;;;;;;18.66;52.78;101589.09;7358773;19;20006;-62
2022/08/28 03:39:01;;;;;;;0.00;0.00;;;;;;;18.62;53.13;101591.00;7360901;19;20047;-62
2022/08/28 03:41:29;;;;;;;0.00;0.00;;;;;;;18.60;52.82;101594.63;7363067;19;20010;-62
2022/08/28 03:43:58;;;;;;;0.00;0.00;;;;;;;18.48;52.82;101574.84;7361954;19;20022;-62
2022/08/28 03:46:25;;;;;;;0.00;0.00;;;;;;;18.55;53.33;101591.31;7359758;19;20134;-62
2022/08/28 03:48:52;;;;;;;0.00;0.00;;;;;;;18.55;52.86;101591.31;7361783;19;20031;-62
2022/08/28 03:51:23;;;;;;;0.00;0.00;;;;;;;18.54;52.14;101589.59;7360825;19;20029;-62
2022/08/28 03:53:49;;;;;;;0.00;0.00;;;;;;;18.49;53.16;101586.28;7361530;19;20039;-62
2022/08/28 03:56:20;;;;;;;0.00;0.00;;;;;;;18.50;52.50;101588.88;7367527;19;20014;-62
2022/08/28 03:58:46;;;;;;;0.00;0.00;;;;;;;18.48;53.13;101595.13;7369775;19;20014;-62
2022/08/28 04:01:12;;;;;;;0.00;0.00;;;;;;;18.47;53.41;101588.13;7372254;19;22244;-62
2022/08/28 04:03:40;;;;;;;0.00;0.00;;;;;;;18.46;53.57;101589.06;7367139;19;20109;-62
2022/08/28 04:06:05;;;;;;;;;;;;;;;18.47;50.90;101583.69;7370783;19;20030;-62
2022/08/28 04:08:31;;;;;;;0.00;0.00;;;;;;;18.45;53.35;101587.31;7368106;19;19941;-62
2022/08/28 04:11:00;;;;;;;0.00;0.00;;;;;;;18.44;53.93;101582.97;7369022;19;20046;-62
2022/08/28 04:13:26;;;;;;;0.00;0.00;;;;;;;18.42;54.03;101585.69;7370033;19;20031;-62
2022/08/28 04:16:01;;;;;;;0.00;0.00;;;;;;;18.44;52.62;101588.25;7367823;19;20011;-62
2022/08/28 04:18:30;;;;;;;0.00;0.00;;;;;;;18.41;53.92;101589.25;7369849;19;20013;-62
2022/08/28 04:20:59;;;;;;;0.00;0.00;;;;;;;18.40;53.51;101585.75;7369180;19;20062;-62
2022/08/28 04:23:25;;;;;;;0.00;0.00;;;;;;;18.31;54.36;101567.63;7366886;19;20585;-62
2022/08/28 04:25:50;;;;;;;0.00;0.00;;;;;;;18.40;54.57;101583.09;7369619;19;20081;-62
2022/08/28 04:28:16;;;;;;;0.00;0.00;;;;;;;18.38;54.73;101579.66;7368846;19;20010;-62
2022/08/28 04:30:41;;;;;;;0.00;0.00;;;;;;;18.39;54.65;101581.38;7367841;19;20010;-62
2022/08/28 04:33:09;;;;;;;0.00;0.00;;;;;;;18.38;54.61;101584.94;7368064;19;20010;-62
2022/08/28 04:35:34;;;;;;;;;;;;;;;18.42;51.35;101578.59;7368707;19;21709;-62
2022/08/28 04:38:02;;;;;;;0.00;0.00;;;;;;;18.40;54.58;101580.47;7368119;19;19914;-62
2022/08/28 04:40:27;;;;;;;0.00;0.00;;;;;;;18.40;54.86;101582.25;7367429;19;20775;-62
2022/08/28 04:42:53;;;;;;;0.00;0.00;;;;;;;18.38;55.34;101582.28;7369117;19;20109;-62
2022/08/28 04:45:18;;;;;;;0.00;0.00;;;;;;;18.38;55.28;101582.28;7367612;19;20046;-62
2022/08/28 04:47:43;;;;;;;0.00;0.00;;;;;;;18.39;54.88;101594.59;7369761;19;20646;-62
2022/08/28 04:50:10;;;;;;;0.00;0.00;;;;;;;18.42;54.92;101590.97;7366750;19;20018;-62
2022/08/28 04:52:36;;;;;;;0.00;0.00;;;;;;;18.41;55.28;101590.09;7368851;19;20399;-63
2022/08/28 04:55:04;;;;;;;0.00;0.00;;;;;;;18.40;55.53;101587.53;7366663;19;20020;-63
2022/08/28 04:57:30;;;;;;;0.00;0.00;;;;;;;18.42;54.82;101591.81;7368771;19;20012;-62
2022/08/28 04:59:59;;;;;;;0.00;0.00;;;;;;;18.44;54.17;101593.53;7366931;19;20462;-62
2022/08/28 05:02:24;;;;;;;0.00;0.00;;;;;;;18.42;55.20;101590.97;7365599;19;20389;-62
2022/08/28 05:04:49;;;;;;;0.00;0.00;;;;;;;18.37;55.20;101588.50;7368761;19;20074;-62
2022/08/28 05:07:15;;;;;;;0.00;0.00;;;;;;;18.33;55.45;101586.91;7365304;19;20006;-62
2022/08/28 05:09:40;;;;;;;0.00;0.00;;;;;;;18.38;55.33;101592.00;7366833;19;20381;-62
2022/08/28 05:12:06;;;;;;;0.00;0.00;;;;;;;18.36;55.05;101597.38;7366874;19;20006;-62
2022/08/28 05:14:31;;;;;;;0.00;0.00;;;;;;;18.34;55.30;101604.50;7367754;19;20073;-62
2022/08/28 05:16:59;;;;;;;0.00;0.00;;;;;;;18.36;55.34;101597.38;7366943;19;20036;-62
2022/08/28 05:19:26;;;;;;;0.08;0.08;;;;;;;18.31;55.03;101599.34;7368293;19;20006;-62
2022/08/28 05:21:52;;;;;;;0.00;0.00;;;;;;;18.34;55.10;101608.91;7365553;19;20018;-62
2022/08/28 05:24:20;;;;;;;0.00;0.00;;;;;;;18.29;54.87;101598.53;7366227;19;20022;-63
2022/08/28 05:26:46;;;;;;;0.00;0.00;;;;;;;18.33;55.49;101602.78;7364419;19;20017;-62
2022/08/28 05:29:11;;;;;;;0.00;0.00;;;;;;;18.31;55.38;101604.63;7368804;19;20007;-62
2022/08/28 05:31:39;;;;;;;0.00;0.00;;;;;;;18.25;55.28;101596.97;7365801;19;20010;-62
2022/08/28 05:34:05;;;;;;;0.00;0.00;;;;;;;18.33;55.85;101618.63;7365120;19;20048;-62
2022/08/28 05:36:34;;;;;;;0.00;0.00;;;;;;;18.35;55.48;101611.53;7365479;19;20455;-63
2022/08/28 05:39:03;;;;;;;0.00;0.00;;;;;;;18.34;55.73;101615.06;7367394;19;20371;-62
2022/08/28 05:41:30;;;;;;;0.00;0.00;;;;;;;18.35;56.31;101627.41;7363483;19;20031;-62
2022/08/28 05:44:00;;;;;;;0.10;0.10;;;;;;;18.36;55.59;101626.47;7367304;19;20900;-62
2022/08/28 05:46:32;;;;;;;0.00;0.00;;;;;;;18.33;55.36;101623.94;7367121;19;20006;-62
2022/08/28 05:48:59;;;;;;;0.00;0.00;;;;;;;18.36;55.62;101629.09;7363630;19;20759;-62
2022/08/28 05:51:26;;;;;;;0.00;0.00;;;;;;;18.35;56.22;101632.69;7365959;19;20032;-62
2022/08/28 05:53:56;;;;;;;0.00;0.00;;;;;;;18.39;55.66;101633.41;7366058;19;20079;-62
2022/08/28 05:56:28;;;;;;;0.00;0.00;;;;;;;18.30;55.29;101618.78;7366253;19;20006;-62
2022/08/28 05:58:54;;;;;;;0.00;0.00;;;;;;;18.29;56.36;101624.13;7354949;19;20006;-62
2022/08/28 06:01:28;;;;;;;0.00;0.00;;;;;;;18.41;56.02;101640.34;7365293;19;20007;-62
2022/08/28 06:03:56;;;;;;;0.00;0.00;;;;;;;18.42;56.82;101644.72;7360303;19;20035;-62
2022/08/28 06:06:23;;;;;;;0.00;0.00;;;;;;;18.43;57.14;101645.56;7362748;19;20619;-62
2022/08/28 06:08:51;;;;;;;0.00;0.00;;;;;;;18.46;56.85;101649.91;7365896;19;20019;-62
2022/08/28 06:11:20;;;;;;;0.00;0.00;;;;;;;18.46;56.33;101645.47;7362650;19;20015;-62
2022/08/28 06:13:46;;;;;;;0.00;0.00;;;;;;;18.47;56.77;101643.69;7363148;19;20013;-62
2022/08/28 06:16:12;;;;;;;0.00;0.00;;;;;;;18.49;56.95;101655.03;7360078;19;20010;-62
2022/08/28 06:18:38;;;;;;;0.00;0.00;;;;;;;18.50;57.19;101657.66;7360530;19;20419;-62
2022/08/28 06:21:03;;;;;;;0.00;0.00;;;;;;;18.51;56.97;101647.94;7364250;19;20085;-62
2022/08/28 06:23:29;;;;;;;0.00;0.00;;;;;;;18.49;57.47;101644.47;7361070;19;20467;-62
2022/08/28 06:25:55;;;;;;;0.00;0.00;;;;;;;18.54;57.37;101648.63;7359444;19;20077;-62
2022/08/28 06:28:23;;;;;;;0.00;0.00;;;;;;;18.54;57.19;101642.50;7360105;19;20055;-62
2022/08/28 06:30:50;;;;;;;0.00;0.00;;;;;;;18.58;57.40;101649.38;7363397;19;20023;-62
2022/08/28 06:33:17;;;;;;;0.08;0.08;;;;;;;18.59;57.05;101648.47;7362831;19;20021;-62
2022/08/28 06:35:48;;;;;;;0.00;0.00;;;;;;;18.65;56.85;101657.03;7359824;19;20034;-62
2022/08/28 06:38:14;;;;;;;0.05;0.05;;;;;;;18.65;57.68;101650.84;7361957;19;20022;-62
2022/08/28 06:40:42;;;;;;;0.08;0.08;;;;;;;18.69;57.45;101657.78;7361308;19;20357;-62
2022/08/28 06:43:08;;;;;;;0.00;0.00;;;;;;;18.70;57.46;101654.19;7363254;19;20699;-62
2022/08/28 06:45:38;;;;;;;0.00;0.00;;;;;;;18.74;57.25;101666.38;7361559;19;20028;-62
2022/08/28 06:48:03;;;;;;;0.00;0.00;;;;;;;18.75;57.18;101652.22;7361297;19;20022;-62
2022/08/28 06:50:29;;;;;;;0.00;0.00;;;;;;;18.80;57.28;101663.47;7361239;19;20014;-63
2022/08/28 06:52:55;;;;;;;0.00;0.00;;;;;;;18.77;57.11;101654.81;7363205;19;20018;-62
2022/08/28 06:55:21;;;;;;;0.00;0.00;;;;;;;18.84;57.49;101658.91;7363169;19;20010;-62
2022/08/28 06:57:49;;;;;;;0.00;0.00;;;;;;;18.89;56.84;101668.38;7358485;19;20013;-62
2022/08/28 07:00:14;;;;;;;0.00;0.00;;;;;;;18.91;57.36;101657.75;7363720;19;20077;-62
2022/08/28 07:02:40;;;;;;;0.00;0.00;;;;;;;18.93;56.48;101656.75;7362969;19;20039;-62
2022/08/28 07:05:07;;;;;;;0.00;0.00;;;;;;;18.97;56.64;101657.50;7362601;19;20019;-62
2022/08/28 07:07:32;;;;;;;0.00;0.00;;;;;;;19.03;56.99;101669.59;7359854;19;20031;-62
2022/08/28 07:10:00;;;;;;;0.00;0.00;;;;;;;19.07;57.28;101663.25;7360650;19;20010;-62
2022/08/28 07:12:25;;;;;;;;;;;;;;;19.15;54.45;101661.97;7363792;19;20010;-62
2022/08/28 07:14:51;;;;;;;0.03;0.03;;;;;;;19.14;57.23;101664.69;7360978;19;21248;-62
2022/08/28 07:17:18;;;;;;;0.00;0.00;;;;;;;19.19;57.03;101662.72;7359979;19;20473;-62
2022/08/28 07:19:43;;;;;;;;;;;;;;;19.25;54.44;101662.44;7362604;19;20075;-62
2022/08/28 07:22:09;;;;;;;0.00;0.00;;;;;;;19.20;57.09;101661.78;7361705;19;20459;-62
2022/08/28 07:24:36;;;;;;;0.00;0.00;;;;;;;19.15;56.09;101650.53;7357985;19;21162;-63
2022/08/28 07:27:02;;;;;;;;;;;;;;;19.34;53.83;101672.63;7362223;19;20343;-62
2022/08/28 07:29:27;;;;;;;0.00;0.00;;;;;;;19.28;56.57;101662.31;7361238;19;19926;-62
2022/08/28 07:31:55;;;;;;;0.00;0.00;;;;;;;19.33;55.93;101670.94;7360485;19;20018;-63
2022/08/28 07:34:21;;;;;;;0.00;0.00;;;;;;;19.36;56.51;101681.41;7362250;19;20025;-62
2022/08/28 07:36:50;;;;;;;0.00;0.00;;;;;;;19.38;56.47;101684.81;7359912;19;20014;-62
2022/08/28 07:39:16;;;;;;;0.00;0.00;;;;;;;19.41;56.72;101679.41;7360818;19;20085;-62
2022/08/28 07:41:43;;;;;;;0.00;0.00;;;;;;;19.47;56.46;101680.06;7361088;19;20022;-63
2022/08/28 07:46:57;;;;;;;0.00;0.00;;;;;;;19.57;57.42;101679.59;7359996;19;20005;-62
2022/08/28 07:49:23;;;;;;;0.00;0.00;;;;;;;19.63;56.99;101683.78;7360600;19;20018;-62
2022/08/28 07:51:48;;;;;;;0.00;0.00;;;;;;;19.68;56.59;101687.09;7359344;19;20032;-62
2022/08/28 07:54:16;;;;;;;0.10;0.10;;;;;;;19.74;56.94;101680.63;7346761;19;20007;-62
2022/08/28 07:56:42;;;;;;;0.00;0.00;;;;;;;19.80;56.37;101686.50;7360433;19;20011;-62
2022/08/28 07:59:10;;;;;;;0.00;0.00;;;;;;;19.88;55.58;101695.00;7361519;19;20426;-62
2022/08/28 08:01:38;;;;;;;;;;;;;;;20.02;54.03;101690.81;7362526;19;20018;-61
2022/08/28 08:04:06;;;;;;;0.00;0.00;;;;;;;20.03;55.71;101682.81;7360770;19;19959;-62
2022/08/28 08:06:32;;;;;;;0.00;0.00;;;;;;;20.04;56.40;101675.72;7360354;19;20511;-63
2022/08/28 08:08:58;;;;;;;0.00;0.00;;;;;;;20.07;56.32;101675.56;7358890;19;20598;-63
2022/08/28 08:11:25;;;;;;;0.00;0.00;;;;;;;20.22;56.54;101693.41;7355666;19;20019;-62
2022/08/28 08:13:50;;;;;;;0.00;0.00;;;;;;;20.29;56.57;101694.00;7359357;19;20034;-62
2022/08/28 08:16:20;;;;;;;0.00;0.00;;;;;;;20.37;56.19;101692.69;7360647;19;20030;-63
2022/08/28 08:18:47;;;;;;;0.00;0.00;;;;;;;20.41;56.46;101694.25;7360032;19;20003;-62
2022/08/28 08:21:14;;;;;;;0.00;0.00;;;;;;;20.48;56.83;101700.19;7359461;19;20783;-62
2022/08/28 08:23:40;;;;;;;;;;;;;;;20.64;53.85;101694.97;7361516;19;20513;-62
2022/08/28 08:26:15;;;;;;;0.00;0.00;;;;;;;20.65;56.70;101694.91;7359943;19;20021;-62
2022/08/28 08:28:44;;;;;;;0.00;0.00;;;;;;;20.70;55.95;101694.69;7359646;19;21826;-62
2022/08/28 08:31:19;;;;;;;0.00;0.00;;;;;;;20.69;55.52;101677.03;7361336;19;20014;-63
2022/08/28 08:33:48;;;;;;;0.00;0.00;;;;;;;20.84;56.45;101696.66;7360102;19;20021;-62
2022/08/28 08:36:16;;;;;;;0.00;0.00;;;;;;;20.89;56.80;101700.81;7357157;19;20039;-62
2022/08/28 08:38:45;;;;;;;0.00;0.00;;;;;;;20.95;56.31;101700.47;7361471;19;20396;-62
2022/08/28 08:41:22;;;;;;;0.00;0.00;;;;;;;21.03;56.36;101712.50;7360874;19;20010;-62
2022/08/28 08:43:50;;;;;;;;;;;;;;;21.19;54.04;101705.50;7365632;19;20502;-62
2022/08/28 08:46:17;;;;;;;0.10;0.10;;;;;;;21.19;55.47;101718.78;7365034;19;19926;-62
2022/08/28 08:48:47;;;;;;;0.00;0.00;;;;;;;21.26;55.38;101717.53;7365260;19;20918;-62
2022/08/28 08:51:29;;;;;;;0.00;0.00;;;;;;;21.34;55.04;101706.50;7365517;19;20018;-62
2022/08/28 08:53:55;;;;;;;0.00;0.00;;;;;;;21.40;55.75;101712.41;7366642;19;20036;-62
2022/08/28 08:56:20;;;;;;;0.00;0.00;;;;;;;21.48;55.59;101715.50;7366771;19;20374;-62
2022/08/28 08:58:51;;;;;;;0.00;0.00;;;;;;;21.63;55.42;101707.66;7364860;19;20015;-62
2022/08/28 09:01:30;;;;;;;0.00;0.00;;;;;;;21.65;54.99;101696.03;7365549;19;20824;-63
2022/08/28 09:04:08;;;;;;;0.00;0.00;;;;;;;21.83;54.44;101709.25;7364656;19;20459;-62
2022/08/28 09:06:50;;;;;;;0.00;0.00;;;;;;;21.93;54.14;101706.00;7365118;19;20008;-62
2022/08/28 09:09:34;;;;;;;0.00;0.00;;;;;;;22.03;53.65;101703.72;7366414;19;20011;-62
2022/08/28 09:12:05;;;;;;;0.00;0.00;;;;;;;22.09;54.37;101705.16;7367170;19;20003;-62
2022/08/28 09:14:57;;;;;;;0.00;0.00;;;;;;;22.20;53.40;101703.69;7363572;19;20450;-62
2022/08/28 09:17:26;;;;;;;0.00;0.00;;;;;;;22.13;54.02;101696.97;7261517;19;2004802;-62
2022/08/28 09:19:52;;;;;;;0.00;0.00;;;;;;;22.22;53.90;101708.91;7365032;19;20354;-62
2022/08/28 09:22:18;;;;;;;0.00;0.00;;;;;;;22.16;53.87;101691.50;7362259;19;20006;-62
2022/08/28 09:24:43;;;;;;;0.00;0.00;;;;;;;22.32;53.29;101712.78;7364122;19;20635;-62
2022/08/28 09:27:27;;;;;;;0.00;0.00;;;;;;;22.47;52.65;101709.25;7363144;19;20017;-62
2022/08/28 09:29:57;;;;;;;0.00;0.00;;;;;;;22.47;53.01;101703.94;7363682;19;20131;-62
2022/08/28 09:32:25;;;;;;;0.00;0.00;;;;;;;22.52;53.49;101701.88;7365787;19;20006;-62
2022/08/28 09:35:01;;;;;;;;;;;;;;;22.71;52.09;101703.50;7361809;19;20038;-63
2022/08/28 09:37:30;;;;;;;0.00;0.00;;;;;;;22.72;52.26;101703.41;7362483;19;21090;-62
2022/08/28 09:40:20;;;;;;;0.05;0.05;;;;;;;22.87;52.00;101709.63;7357401;19;20519;-62
2022/08/28 09:43:25;;;;;;;0.00;0.00;;;;;;;22.94;51.55;101704.84;7353939;19;20010;-62
2022/08/28 09:46:01;;;;;;;0.00;0.00;;;;;;;23.00;51.74;101705.31;7257282;19;2004196;-63
2022/08/28 09:48:34;;;;;;;0.10;0.10;;;;;;;23.04;51.85;101709.53;7360308;19;20616;-62
2022/08/28 09:51:03;;;;;;;0.00;0.00;;;;;;;23.01;51.58;101690.19;7362785;19;20010;-62
2022/08/28 09:53:33;;;;;;;0.00;0.00;;;;;;;23.16;51.81;101707.94;7361892;19;20028;-62
2022/08/28 09:56:14;;;;;;;0.00;0.00;;;;;;;23.22;51.75;101704.06;7361046;19;20006;-62
2022/08/28 09:58:44;;;;;;;0.00;0.00;;;;;;;23.35;51.63;101709.50;7359748;19;20032;-62
2022/08/28 10:01:30;;;;;;;0.00;0.00;;;;;;;23.47;51.39;101709.63;7361306;19;20050;-63
2022/08/28 10:04:02;;;;;;;0.00;0.00;;;;;;;23.48;51.61;101721.16;7359794;19;20463;-62
2022/08/28 10:06:32;;;;;;;0.00;0.00;;;;;;;23.61;51.44;101716.78;7362781;19;20006;-62
2022/08/28 10:09:39;;;;;;;0.00;0.00;;;;;;;23.74;51.15;101716.94;7362054;19;20095;-62
2022/08/28 10:12:04;;;;;;;0.00;0.00;;;;;;;23.78;50.69;101721.13;7258862;19;2004517;-62
2022/08/28 10:14:39;;;;;;;0.00;0.00;;;;;;;23.87;50.71;101720.53;7360742;19;20003;-62
2022/08/28 10:17:52;;;;;;;0.00;0.00;;;;;;;24.03;50.58;101717.78;7360635;19;20382;-62
2022/08/28 10:20:21;;;;;;;0.00;0.00;;;;;;;24.07;50.82;101722.81;7257379;19;2004526;-62
2022/08/28 10:22:51;;;;;;;0.00;0.00;;;;;;;24.21;49.82;101723.75;7361840;19;20047;-62
2022/08/28 10:25:22;;;;;;;0.00;0.00;;;;;;;24.29;49.54;101726.78;7364721;19;20018;-62
2022/08/28 10:28:16;;;;;;;0.03;0.03;;;;;;;24.40;49.58;101726.13;7362921;19;22182;-62
2022/08/28 10:30:57;;;;;;;0.00;0.00;;;;;;;24.46;48.99;101718.56;7258609;19;2004486;-62
2022/08/28 10:33:28;;;;;;;0.00;0.00;;;;;;;24.54;49.36;101734.97;7362637;19;20148;-62
2022/08/28 10:36:09;;;;;;;0.00;0.00;;;;;;;24.63;49.01;101736.16;7356977;19;20018;-62
2022/08/28 10:38:43;;;;;;;0.00;0.00;;;;;;;24.66;48.81;101729.78;7358361;19;20025;-63
2022/08/28 10:41:24;;;;;;;0.00;0.00;;;;;;;24.80;48.65;101740.41;7358323;19;20014;-62
2022/08/28 10:43:52;;;;;;;0.00;0.00;;;;;;;24.87;47.92;101741.72;7362768;19;20031;-62
2022/08/28 10:46:23;;;;;;;0.00;0.00;;;;;;;25.00;47.74;101742.63;7362346;19;20035;-63
2022/08/28 10:49:05;;;;;;;0.00;0.00;;;;;;;25.15;48.12;101745.25;7361936;19;20363;-62
2022/08/28 10:51:42;;;;;;;0.00;0.00;;;;;;;25.21;48.09;101745.69;7361791;19;20010;-62
2022/08/28 10:54:31;;;;;;;;;;;;;;;25.38;47.82;101736.50;7364973;19;20010;-63
2022/08/28 10:57:08;;;;;;;0.00;0.00;;;;;;;25.40;46.88;101739.94;7362701;19;20257;-62
2022/08/28 10:59:37;;;;;;;0.03;0.03;;;;;;;25.32;46.74;101734.25;7364384;19;20006;-63
2022/08/28 11:02:07;;;;;;;0.00;0.00;;;;;;;25.48;46.57;101748.28;7361817;19;20416;-62
2022/08/28 11:04:33;;;;;;;0.00;0.00;;;;;;;25.45;46.12;101747.66;7361383;19;20023;-62
2022/08/28 11:07:08;;;;;;;0.05;0.05;;;;;;;25.54;46.09;101758.56;7363802;19;20018;-62
2022/08/28 11:09:44;;;;;;;0.00;0.00;;;;;;;25.56;46.38;101753.97;7362060;19;20014;-62
2022/08/28 11:12:16;;;;;;;0.03;0.03;;;;;;;25.60;46.19;101757.31;7363895;19;20011;-62
2022/08/28 11:14:44;;;;;;;0.00;0.00;;;;;;;25.58;45.97;101754.72;7361301;19;20086;-62
2022/08/28 11:17:38;;;;;;;0.00;0.00;;;;;;;25.67;46.47;101753.22;7343487;19;20010;-63
2022/08/28 11:20:23;;;;;;;0.00;0.00;;;;;;;25.70;45.80;101753.03;7253780;19;2004461;-62
2022/08/28 11:22:57;;;;;;;0.00;0.00;;;;;;;25.70;45.62;101758.38;7361969;19;20011;-62
2022/08/28 11:25:57;;;;;;;0.10;0.10;;;;;;;25.74;45.54;101748.28;7357078;19;20022;-62
2022/08/28 11:28:22;;;;;;;0.00;0.00;;;;;;;25.68;45.75;101754.06;7260314;19;2004267;-62
2022/08/28 11:31:14;;;;;;;0.10;0.10;;;;;;;25.80;45.94;101758.59;7361147;19;20011;-62
2022/08/28 11:33:44;;;;;;;0.10;0.10;;;;;;;25.78;45.52;101752.50;7244766;19;2004672;-62
2022/08/28 11:36:21;;;;;;;0.10;0.10;;;;;;;25.83;45.59;101753.91;7359149;19;21366;-62
2022/08/28 11:38:56;;;;;;;0.08;0.08;;;;;;;25.86;45.80;101755.50;7359676;19;20006;-62
2022/08/28 11:41:26;;;;;;;0.10;0.10;;;;;;;25.81;45.80;101755.84;7358576;19;20514;-63
2022/08/28 11:44:26;;;;;;;0.10;0.10;;;;;;;25.96;45.58;101759.25;7358121;19;20040;-62
2022/08/28 11:46:54;;;;;;;0.00;0.00;;;;;;;25.89;45.05;101763.31;7250099;19;2004444;-62